METAR Data
IDs: Format: Raw Decoded Include TAF

Data at: 2057 UTC 01 Dec 2021

RKSS 012000Z 19003KT 180V270 CAVOK M05/M08 Q1023 NOSIG